Gulston, Kentucky
Current Conditions -  °F | °C
As of 9:55 PM on Sunday 23 Nov 2014 (Local Time) from KI35 Reporting Station
Overcast Overcast  
Wind Chill: 57°   Ceiling: 4200
Heat Index: 57°   Visibility: 10mi
Dew Point: 50°   Wind: 6mph
Humidity: 77%   Direction: 160°SSE
Pressure: 29.55"   Gusts: NA
Location:  36.79°N, 83.33°W
Report Text: KI35 240255Z AUTO 16005KT 10SM BKN042 OVC050 14/10 A2955 RMK AO1
Loading
Personal Weather Stations






























Interactive Weather Map New forecast layout! Learn more

10-Day Weather Forecast

Advertisements
Track Severe Weather on mobile